sensor_id;sensor_type;location;lat;lon;timestamp;temperature;humidity
15364;DHT22;7781;49.690;6.472;2023-07-29T00:00:32;19.30;99.90
15364;DHT22;7781;49.690;6.472;2023-07-29T00:03:00;19.30;99.90
15364;DHT22;7781;49.690;6.472;2023-07-29T00:05:28;19.30;99.90
15364;DHT22;7781;49.690;6.472;2023-07-29T00:07:57;19.30;99.90
15364;DHT22;7781;49.690;6.472;2023-07-29T00:10:25;19.30;99.90
15364;DHT22;7781;49.690;6.472;2023-07-29T00:12:54;19.20;99.90
15364;DHT22;7781;49.690;6.472;2023-07-29T00:15:23;19.20;99.90
15364;DHT22;7781;49.690;6.472;2023-07-29T00:17:53;19.30;99.90
15364;DHT22;7781;49.690;6.472;2023-07-29T00:20:21;19.20;99.90
15364;DHT22;7781;49.690;6.472;2023-07-29T00:22:50;19.20;99.90
15364;DHT22;7781;49.690;6.472;2023-07-29T00:25:21;19.20;99.90
15364;DHT22;7781;49.690;6.472;2023-07-29T00:27:49;19.20;99.90
15364;DHT22;7781;49.690;6.472;2023-07-29T00:30:21;19.20;99.90
15364;DHT22;7781;49.690;6.472;2023-07-29T00:32:50;19.20;99.90
15364;DHT22;7781;49.690;6.472;2023-07-29T00:35:19;19.20;99.90
15364;DHT22;7781;49.690;6.472;2023-07-29T00:37:48;19.20;99.90
15364;DHT22;7781;49.690;6.472;2023-07-29T00:40:21;19.20;99.90
15364;DHT22;7781;49.690;6.472;2023-07-29T00:42:50;19.20;99.90
15364;DHT22;7781;49.690;6.472;2023-07-29T00:45:19;19.20;99.90
15364;DHT22;7781;49.690;6.472;2023-07-29T00:47:47;19.20;99.90
15364;DHT22;7781;49.690;6.472;2023-07-29T00:50:19;19.20;99.90
15364;DHT22;7781;49.690;6.472;2023-07-29T00:52:48;19.30;99.90
15364;DHT22;7781;49.690;6.472;2023-07-29T00:55:17;19.20;99.90
15364;DHT22;7781;49.690;6.472;2023-07-29T00:57:47;19.20;99.90
15364;DHT22;7781;49.690;6.472;2023-07-29T01:00:18;19.20;99.90
15364;DHT22;7781;49.690;6.472;2023-07-29T01:02:47;19.20;99.90
15364;DHT22;7781;49.690;6.472;2023-07-29T01:05:16;19.20;99.90
15364;DHT22;7781;49.690;6.472;2023-07-29T01:07:55;19.20;99.90
15364;DHT22;7781;49.690;6.472;2023-07-29T01:10:31;19.30;99.90
15364;DHT22;7781;49.690;6.472;2023-07-29T01:13:10;19.20;99.90
15364;DHT22;7781;49.690;6.472;2023-07-29T01:15:47;19.20;99.90
15364;DHT22;7781;49.690;6.472;2023-07-29T01:18:22;19.20;99.90
15364;DHT22;7781;49.690;6.472;2023-07-29T01:20:53;19.30;99.90
15364;DHT22;7781;49.690;6.472;2023-07-29T01:23:29;19.20;99.90
15364;DHT22;7781;49.690;6.472;2023-07-29T01:25:58;19.20;99.90
15364;DHT22;7781;49.690;6.472;2023-07-29T01:28:27;19.30;99.90
15364;DHT22;7781;49.690;6.472;2023-07-29T01:31:11;19.30;99.90
15364;DHT22;7781;49.690;6.472;2023-07-29T01:33:44;19.30;99.90
15364;DHT22;7781;49.690;6.472;2023-07-29T01:36:20;19.30;99.90
15364;DHT22;7781;49.690;6.472;2023-07-29T01:38:52;19.30;99.90
15364;DHT22;7781;49.690;6.472;2023-07-29T01:41:24;19.30;99.90
15364;DHT22;7781;49.690;6.472;2023-07-29T01:43:53;19.30;99.90
15364;DHT22;7781;49.690;6.472;2023-07-29T01:46:22;19.40;99.90
15364;DHT22;7781;49.690;6.472;2023-07-29T01:48:51;19.40;99.90
15364;DHT22;7781;49.690;6.472;2023-07-29T01:51:19;19.40;99.90
15364;DHT22;7781;49.690;6.472;2023-07-29T01:53:50;19.50;99.90
15364;DHT22;7781;49.690;6.472;2023-07-29T01:56:19;19.50;99.90
15364;DHT22;7781;49.690;6.472;2023-07-29T01:58:55;19.40;99.90
15364;DHT22;7781;49.690;6.472;2023-07-29T02:01:24;19.50;99.90
15364;DHT22;7781;49.690;6.472;2023-07-29T02:03:53;19.40;99.90
15364;DHT22;7781;49.690;6.472;2023-07-29T02:06:23;19.40;99.90
15364;DHT22;7781;49.690;6.472;2023-07-29T02:08:54;19.40;99.90
15364;DHT22;7781;49.690;6.472;2023-07-29T02:11:23;19.40;99.90
15364;DHT22;7781;49.690;6.472;2023-07-29T02:13:55;19.30;99.90
15364;DHT22;7781;49.690;6.472;2023-07-29T02:16:23;19.30;99.90
15364;DHT22;7781;49.690;6.472;2023-07-29T02:18:52;19.30;99.90
15364;DHT22;7781;49.690;6.472;2023-07-29T02:21:22;19.30;99.90
15364;DHT22;7781;49.690;6.472;2023-07-29T02:23:51;19.30;99.90
15364;DHT22;7781;49.690;6.472;2023-07-29T02:26:21;19.30;99.90
15364;DHT22;7781;49.690;6.472;2023-07-29T02:28:50;19.30;99.90
15364;DHT22;7781;49.690;6.472;2023-07-29T02:31:21;19.30;99.90
15364;DHT22;7781;49.690;6.472;2023-07-29T02:33:50;19.30;99.90
15364;DHT22;7781;49.690;6.472;2023-07-29T02:36:19;19.30;99.90
15364;DHT22;7781;49.690;6.472;2023-07-29T02:38:48;19.30;99.90
15364;DHT22;7781;49.690;6.472;2023-07-29T02:41:18;19.30;99.90
15364;DHT22;7781;49.690;6.472;2023-07-29T02:43:50;19.30;99.90
15364;DHT22;7781;49.690;6.472;2023-07-29T02:46:19;19.30;99.90
15364;DHT22;7781;49.690;6.472;2023-07-29T02:48:47;19.30;99.90
15364;DHT22;7781;49.690;6.472;2023-07-29T02:51:17;19.30;99.90
15364;DHT22;7781;49.690;6.472;2023-07-29T02:53:46;19.30;99.90
15364;DHT22;7781;49.690;6.472;2023-07-29T02:56:15;19.40;99.90
15364;DHT22;7781;49.690;6.472;2023-07-29T02:58:43;19.40;99.90
15364;DHT22;7781;49.690;6.472;2023-07-29T03:01:14;19.40;99.90
15364;DHT22;7781;49.690;6.472;2023-07-29T03:03:43;19.40;99.90
15364;DHT22;7781;49.690;6.472;2023-07-29T03:06:15;19.40;99.90
15364;DHT22;7781;49.690;6.472;2023-07-29T03:08:43;19.40;99.90
15364;DHT22;7781;49.690;6.472;2023-07-29T03:11:14;19.40;99.90
15364;DHT22;7781;49.690;6.472;2023-07-29T03:13:43;19.40;99.90
15364;DHT22;7781;49.690;6.472;2023-07-29T03:16:15;19.40;99.90
15364;DHT22;7781;49.690;6.472;2023-07-29T03:18:53;19.40;99.90
15364;DHT22;7781;49.690;6.472;2023-07-29T03:21:21;19.40;99.90
15364;DHT22;7781;49.690;6.472;2023-07-29T03:23:49;19.40;99.90
15364;DHT22;7781;49.690;6.472;2023-07-29T03:26:18;19.40;99.90
15364;DHT22;7781;49.690;6.472;2023-07-29T03:28:46;19.40;99.90
15364;DHT22;7781;49.690;6.472;2023-07-29T03:31:16;19.40;99.90
15364;DHT22;7781;49.690;6.472;2023-07-29T03:33:46;19.40;99.90
15364;DHT22;7781;49.690;6.472;2023-07-29T03:36:15;19.30;99.90
15364;DHT22;7781;49.690;6.472;2023-07-29T03:38:43;19.20;99.90
15364;DHT22;7781;49.690;6.472;2023-07-29T03:41:12;19.20;99.90
15364;DHT22;7781;49.690;6.472;2023-07-29T03:43:40;19.10;99.90
15364;DHT22;7781;49.690;6.472;2023-07-29T03:46:09;19.00;99.90
15364;DHT22;7781;49.690;6.472;2023-07-29T03:48:42;18.90;99.90
15364;DHT22;7781;49.690;6.472;2023-07-29T03:51:10;18.80;99.90
15364;DHT22;7781;49.690;6.472;2023-07-29T03:53:39;18.70;99.90
15364;DHT22;7781;49.690;6.472;2023-07-29T03:56:08;18.70;99.90
15364;DHT22;7781;49.690;6.472;2023-07-29T03:58:36;18.70;99.90
15364;DHT22;7781;49.690;6.472;2023-07-29T04:01:05;18.60;99.90
15364;DHT22;7781;49.690;6.472;2023-07-29T04:03:34;18.60;99.90
15364;DHT22;7781;49.690;6.472;2023-07-29T04:06:05;18.60;99.90
15364;DHT22;7781;49.690;6.472;2023-07-29T04:08:34;18.50;99.90
15364;DHT22;7781;49.690;6.472;2023-07-29T04:11:03;18.50;99.90
15364;DHT22;7781;49.690;6.472;2023-07-29T04:13:32;18.50;99.90
15364;DHT22;7781;49.690;6.472;2023-07-29T04:16:01;18.40;99.90
15364;DHT22;7781;49.690;6.472;2023-07-29T04:18:30;18.30;99.90
15364;DHT22;7781;49.690;6.472;2023-07-29T04:20:59;18.10;99.90
15364;DHT22;7781;49.690;6.472;2023-07-29T04:23:28;18.00;99.90
15364;DHT22;7781;49.690;6.472;2023-07-29T04:25:57;17.90;99.90
15364;DHT22;7781;49.690;6.472;2023-07-29T04:28:25;17.90;99.90
15364;DHT22;7781;49.690;6.472;2023-07-29T04:30:54;18.00;99.90
15364;DHT22;7781;49.690;6.472;2023-07-29T04:33:22;18.10;99.90
15364;DHT22;7781;49.690;6.472;2023-07-29T04:35:51;18.10;99.90
15364;DHT22;7781;49.690;6.472;2023-07-29T04:38:21;18.20;99.90
15364;DHT22;7781;49.690;6.472;2023-07-29T04:40:51;18.20;99.90
15364;DHT22;7781;49.690;6.472;2023-07-29T04:43:20;18.20;99.90
15364;DHT22;7781;49.690;6.472;2023-07-29T04:45:49;18.20;99.90
15364;DHT22;7781;49.690;6.472;2023-07-29T04:48:20;18.00;99.90
15364;DHT22;7781;49.690;6.472;2023-07-29T04:50:49;18.10;99.90
15364;DHT22;7781;49.690;6.472;2023-07-29T04:53:18;18.00;99.90
15364;DHT22;7781;49.690;6.472;2023-07-29T04:55:46;18.00;99.90
15364;DHT22;7781;49.690;6.472;2023-07-29T04:58:16;18.10;99.90
15364;DHT22;7781;49.690;6.472;2023-07-29T05:00:46;18.00;99.90
15364;DHT22;7781;49.690;6.472;2023-07-29T05:03:15;18.00;99.90
15364;DHT22;7781;49.690;6.472;2023-07-29T05:05:43;18.00;99.90
15364;DHT22;7781;49.690;6.472;2023-07-29T05:08:13;18.00;99.90
15364;DHT22;7781;49.690;6.472;2023-07-29T05:10:41;18.00;99.90
15364;DHT22;7781;49.690;6.472;2023-07-29T05:13:10;18.10;99.90
15364;DHT22;7781;49.690;6.472;2023-07-29T05:15:40;18.10;99.90
15364;DHT22;7781;49.690;6.472;2023-07-29T05:18:09;18.10;99.90
15364;DHT22;7781;49.690;6.472;2023-07-29T05:20:38;18.00;99.90
15364;DHT22;7781;49.690;6.472;2023-07-29T05:23:07;17.90;99.90
15364;DHT22;7781;49.690;6.472;2023-07-29T05:25:35;17.90;99.90
15364;DHT22;7781;49.690;6.472;2023-07-29T05:28:07;17.90;99.90
15364;DHT22;7781;49.690;6.472;2023-07-29T05:30:37;17.80;99.90
15364;DHT22;7781;49.690;6.472;2023-07-29T05:33:09;17.80;99.90
15364;DHT22;7781;49.690;6.472;2023-07-29T05:35:39;17.80;99.90
15364;DHT22;7781;49.690;6.472;2023-07-29T05:38:07;17.80;99.90
15364;DHT22;7781;49.690;6.472;2023-07-29T05:40:36;17.80;99.90
15364;DHT22;7781;49.690;6.472;2023-07-29T05:43:05;17.80;99.90
15364;DHT22;7781;49.690;6.472;2023-07-29T05:45:35;17.70;99.90
15364;DHT22;7781;49.690;6.472;2023-07-29T05:48:04;17.70;99.90
15364;DHT22;7781;49.690;6.472;2023-07-29T05:50:36;17.70;99.90
15364;DHT22;7781;49.690;6.472;2023-07-29T05:53:05;17.70;99.90
15364;DHT22;7781;49.690;6.472;2023-07-29T05:55:34;17.70;99.90
15364;DHT22;7781;49.690;6.472;2023-07-29T05:58:03;17.70;99.90
15364;DHT22;7781;49.690;6.472;2023-07-29T06:00:32;17.80;99.90
15364;DHT22;7781;49.690;6.472;2023-07-29T06:03:01;17.80;99.90
15364;DHT22;7781;49.690;6.472;2023-07-29T06:05:30;17.90;99.90
15364;DHT22;7781;49.690;6.472;2023-07-29T06:07:59;18.00;99.90
15364;DHT22;7781;49.690;6.472;2023-07-29T06:10:28;18.00;99.90
15364;DHT22;7781;49.690;6.472;2023-07-29T06:12:57;18.00;99.90
15364;DHT22;7781;49.690;6.472;2023-07-29T06:15:25;18.10;99.90
15364;DHT22;7781;49.690;6.472;2023-07-29T06:17:56;18.20;99.90
15364;DHT22;7781;49.690;6.472;2023-07-29T06:20:26;18.30;99.90
15364;DHT22;7781;49.690;6.472;2023-07-29T06:22:55;18.40;99.90
15364;DHT22;7781;49.690;6.472;2023-07-29T06:25:25;18.40;99.90
15364;DHT22;7781;49.690;6.472;2023-07-29T06:27:53;18.50;99.90
15364;DHT22;7781;49.690;6.472;2023-07-29T06:30:22;18.50;99.90
15364;DHT22;7781;49.690;6.472;2023-07-29T06:32:50;18.50;99.90
15364;DHT22;7781;49.690;6.472;2023-07-29T06:35:19;18.50;99.90
15364;DHT22;7781;49.690;6.472;2023-07-29T06:37:48;18.50;99.90
15364;DHT22;7781;49.690;6.472;2023-07-29T06:40:17;18.50;99.90
15364;DHT22;7781;49.690;6.472;2023-07-29T06:42:46;18.50;99.90
15364;DHT22;7781;49.690;6.472;2023-07-29T06:45:16;18.50;99.90
15364;DHT22;7781;49.690;6.472;2023-07-29T06:47:45;18.50;99.90
15364;DHT22;7781;49.690;6.472;2023-07-29T06:50:14;18.60;99.90
15364;DHT22;7781;49.690;6.472;2023-07-29T06:52:42;18.70;99.90
15364;DHT22;7781;49.690;6.472;2023-07-29T06:55:11;18.80;99.90
15364;DHT22;7781;49.690;6.472;2023-07-29T06:57:39;18.80;99.90
15364;DHT22;7781;49.690;6.472;2023-07-29T07:00:11;18.80;99.90
15364;DHT22;7781;49.690;6.472;2023-07-29T07:02:39;18.80;99.90
15364;DHT22;7781;49.690;6.472;2023-07-29T07:05:09;18.90;99.90
15364;DHT22;7781;49.690;6.472;2023-07-29T07:07:38;18.90;99.90
15364;DHT22;7781;49.690;6.472;2023-07-29T07:10:07;19.00;99.90
15364;DHT22;7781;49.690;6.472;2023-07-29T07:12:35;19.00;99.90
15364;DHT22;7781;49.690;6.472;2023-07-29T07:15:04;19.00;99.90
15364;DHT22;7781;49.690;6.472;2023-07-29T07:17:34;19.00;99.90
15364;DHT22;7781;49.690;6.472;2023-07-29T07:20:03;19.00;99.90
15364;DHT22;7781;49.690;6.472;2023-07-29T07:22:32;19.00;99.90
15364;DHT22;7781;49.690;6.472;2023-07-29T07:25:00;19.10;99.90
15364;DHT22;7781;49.690;6.472;2023-07-29T07:27:29;19.20;99.90
15364;DHT22;7781;49.690;6.472;2023-07-29T07:29:57;19.30;99.90
15364;DHT22;7781;49.690;6.472;2023-07-29T07:32:26;19.30;99.90
15364;DHT22;7781;49.690;6.472;2023-07-29T07:34:57;19.30;99.90
15364;DHT22;7781;49.690;6.472;2023-07-29T07:37:25;19.30;99.90
15364;DHT22;7781;49.690;6.472;2023-07-29T07:39:54;19.30;99.90
15364;DHT22;7781;49.690;6.472;2023-07-29T07:42:22;19.40;99.90
15364;DHT22;7781;49.690;6.472;2023-07-29T07:44:50;19.40;99.90
15364;DHT22;7781;49.690;6.472;2023-07-29T07:47:19;19.50;99.90
15364;DHT22;7781;49.690;6.472;2023-07-29T07:49:49;19.50;99.90
15364;DHT22;7781;49.690;6.472;2023-07-29T07:52:18;19.70;99.90
15364;DHT22;7781;49.690;6.472;2023-07-29T07:54:51;19.90;99.90
15364;DHT22;7781;49.690;6.472;2023-07-29T07:57:21;20.00;99.90
15364;DHT22;7781;49.690;6.472;2023-07-29T07:59:49;20.10;99.90
15364;DHT22;7781;49.690;6.472;2023-07-29T08:02:19;20.10;99.90
15364;DHT22;7781;49.690;6.472;2023-07-29T08:04:49;20.20;99.90
15364;DHT22;7781;49.690;6.472;2023-07-29T08:07:19;20.30;99.90
15364;DHT22;7781;49.690;6.472;2023-07-29T08:09:47;20.50;99.90
15364;DHT22;7781;49.690;6.472;2023-07-29T08:12:16;20.50;99.90
15364;DHT22;7781;49.690;6.472;2023-07-29T08:14:46;20.60;99.90
15364;DHT22;7781;49.690;6.472;2023-07-29T08:17:15;20.50;99.90
15364;DHT22;7781;49.690;6.472;2023-07-29T08:19:43;20.60;99.90
15364;DHT22;7781;49.690;6.472;2023-07-29T08:22:12;20.70;99.90
15364;DHT22;7781;49.690;6.472;2023-07-29T08:24:42;20.70;99.90
15364;DHT22;7781;49.690;6.472;2023-07-29T08:27:11;20.70;99.90
15364;DHT22;7781;49.690;6.472;2023-07-29T08:29:39;20.60;99.90
15364;DHT22;7781;49.690;6.472;2023-07-29T08:32:08;20.50;99.90
15364;DHT22;7781;49.690;6.472;2023-07-29T08:34:36;20.50;99.90
15364;DHT22;7781;49.690;6.472;2023-07-29T08:37:05;20.40;99.90
15364;DHT22;7781;49.690;6.472;2023-07-29T08:39:34;20.40;99.90
15364;DHT22;7781;49.690;6.472;2023-07-29T08:42:08;20.50;99.90
15364;DHT22;7781;49.690;6.472;2023-07-29T08:44:41;20.50;99.90
15364;DHT22;7781;49.690;6.472;2023-07-29T08:47:11;20.50;99.90
15364;DHT22;7781;49.690;6.472;2023-07-29T08:49:41;20.30;99.90
15364;DHT22;7781;49.690;6.472;2023-07-29T08:52:09;20.30;99.90
15364;DHT22;7781;49.690;6.472;2023-07-29T08:54:40;20.20;99.90
15364;DHT22;7781;49.690;6.472;2023-07-29T08:57:11;20.10;99.90
15364;DHT22;7781;49.690;6.472;2023-07-29T08:59:42;20.10;99.90
15364;DHT22;7781;49.690;6.472;2023-07-29T09:02:11;20.00;99.90
15364;DHT22;7781;49.690;6.472;2023-07-29T09:04:40;20.00;99.90
15364;DHT22;7781;49.690;6.472;2023-07-29T09:07:08;20.10;99.90
15364;DHT22;7781;49.690;6.472;2023-07-29T09:09:38;20.20;99.90
15364;DHT22;7781;49.690;6.472;2023-07-29T09:12:08;20.40;99.90
15364;DHT22;7781;49.690;6.472;2023-07-29T09:14:39;20.60;99.90
15364;DHT22;7781;49.690;6.472;2023-07-29T09:17:08;20.80;99.90
15364;DHT22;7781;49.690;6.472;2023-07-29T09:19:39;20.90;99.90
15364;DHT22;7781;49.690;6.472;2023-07-29T09:22:17;21.10;99.90
15364;DHT22;7781;49.690;6.472;2023-07-29T09:24:48;21.30;99.90
15364;DHT22;7781;49.690;6.472;2023-07-29T09:27:26;21.50;99.90
15364;DHT22;7781;49.690;6.472;2023-07-29T09:29:56;21.60;99.90
15364;DHT22;7781;49.690;6.472;2023-07-29T09:32:25;21.70;99.90
15364;DHT22;7781;49.690;6.472;2023-07-29T09:34:54;21.60;99.90
15364;DHT22;7781;49.690;6.472;2023-07-29T09:37:23;21.60;99.90
15364;DHT22;7781;49.690;6.472;2023-07-29T09:39:54;21.60;99.90
15364;DHT22;7781;49.690;6.472;2023-07-29T09:42:22;21.70;99.90
15364;DHT22;7781;49.690;6.472;2023-07-29T09:44:51;21.90;99.90
15364;DHT22;7781;49.690;6.472;2023-07-29T09:47:24;22.10;99.90
15364;DHT22;7781;49.690;6.472;2023-07-29T09:49:53;22.20;99.90
15364;DHT22;7781;49.690;6.472;2023-07-29T09:52:22;22.10;99.90
15364;DHT22;7781;49.690;6.472;2023-07-29T09:54:51;21.90;99.90
15364;DHT22;7781;49.690;6.472;2023-07-29T09:57:20;21.90;99.90
15364;DHT22;7781;49.690;6.472;2023-07-29T09:59:55;22.00;99.90
15364;DHT22;7781;49.690;6.472;2023-07-29T10:02:26;22.20;99.90
15364;DHT22;7781;49.690;6.472;2023-07-29T10:04:56;22.20;99.90
15364;DHT22;7781;49.690;6.472;2023-07-29T10:07:26;22.20;99.90
15364;DHT22;7781;49.690;6.472;2023-07-29T10:09:56;22.20;99.90
15364;DHT22;7781;49.690;6.472;2023-07-29T10:12:27;22.40;95.00
15364;DHT22;7781;49.690;6.472;2023-07-29T10:14:59;22.60;99.90
15364;DHT22;7781;49.690;6.472;2023-07-29T10:17:30;22.90;99.90
15364;DHT22;7781;49.690;6.472;2023-07-29T10:19:59;23.00;85.50
15364;DHT22;7781;49.690;6.472;2023-07-29T10:22:29;22.90;92.00
15364;DHT22;7781;49.690;6.472;2023-07-29T10:25:03;22.80;98.00
15364;DHT22;7781;49.690;6.472;2023-07-29T10:27:38;22.80;91.20
15364;DHT22;7781;49.690;6.472;2023-07-29T10:30:11;22.60;87.50
15364;DHT22;7781;49.690;6.472;2023-07-29T10:32:44;22.60;92.60
15364;DHT22;7781;49.690;6.472;2023-07-29T10:35:14;22.70;94.00
15364;DHT22;7781;49.690;6.472;2023-07-29T10:37:43;22.80;99.90
15364;DHT22;7781;49.690;6.472;2023-07-29T10:40:12;22.90;93.70
15364;DHT22;7781;49.690;6.472;2023-07-29T10:42:59;23.00;94.70
15364;DHT22;7781;49.690;6.472;2023-07-29T10:45:36;23.20;59.30
15364;DHT22;7781;49.690;6.472;2023-07-29T10:48:10;23.40;89.00
15364;DHT22;7781;49.690;6.472;2023-07-29T10:50:39;23.40;59.80
15364;DHT22;7781;49.690;6.472;2023-07-29T10:53:08;23.50;56.90
15364;DHT22;7781;49.690;6.472;2023-07-29T10:55:36;23.60;61.30
15364;DHT22;7781;49.690;6.472;2023-07-29T10:58:12;23.80;60.20
15364;DHT22;7781;49.690;6.472;2023-07-29T11:00:42;24.00;43.50
15364;DHT22;7781;49.690;6.472;2023-07-29T11:03:12;24.00;44.90
15364;DHT22;7781;49.690;6.472;2023-07-29T11:05:49;24.10;46.30
15364;DHT22;7781;49.690;6.472;2023-07-29T11:08:29;24.30;52.10
15364;DHT22;7781;49.690;6.472;2023-07-29T11:11:01;24.50;15.00
15364;DHT22;7781;49.690;6.472;2023-07-29T11:13:31;24.40;4.50
15364;DHT22;7781;49.690;6.472;2023-07-29T11:16:00;24.40;1.00
15364;DHT22;7781;49.690;6.472;2023-07-29T11:18:31;24.20;1.00
15364;DHT22;7781;49.690;6.472;2023-07-29T11:21:01;24.10;5.30
15364;DHT22;7781;49.690;6.472;2023-07-29T11:23:31;24.30;1.00
15364;DHT22;7781;49.690;6.472;2023-07-29T11:26:01;24.70;8.40
15364;DHT22;7781;49.690;6.472;2023-07-29T11:28:30;24.90;1.00
15364;DHT22;7781;49.690;6.472;2023-07-29T11:30:58;25.00;1.00
15364;DHT22;7781;49.690;6.472;2023-07-29T11:33:27;25.00;1.00
15364;DHT22;7781;49.690;6.472;2023-07-29T11:35:57;24.70;1.00
15364;DHT22;7781;49.690;6.472;2023-07-29T11:38:25;24.70;1.00
15364;DHT22;7781;49.690;6.472;2023-07-29T11:40:59;24.60;1.00
15364;DHT22;7781;49.690;6.472;2023-07-29T11:43:29;24.80;1.00
15364;DHT22;7781;49.690;6.472;2023-07-29T11:46:01;25.00;1.00
15364;DHT22;7781;49.690;6.472;2023-07-29T11:48:32;25.30;1.00
15364;DHT22;7781;49.690;6.472;2023-07-29T11:51:02;25.30;1.00
15364;DHT22;7781;49.690;6.472;2023-07-29T11:53:31;25.30;1.00
15364;DHT22;7781;49.690;6.472;2023-07-29T11:56:01;25.20;1.00
15364;DHT22;7781;49.690;6.472;2023-07-29T11:58:29;25.10;1.00
15364;DHT22;7781;49.690;6.472;2023-07-29T12:00:58;25.20;1.00
15364;DHT22;7781;49.690;6.472;2023-07-29T12:03:27;25.10;1.00
15364;DHT22;7781;49.690;6.472;2023-07-29T12:05:56;24.90;1.00
15364;DHT22;7781;49.690;6.472;2023-07-29T12:08:26;24.90;1.00
15364;DHT22;7781;49.690;6.472;2023-07-29T12:10:55;25.30;1.00
15364;DHT22;7781;49.690;6.472;2023-07-29T12:13:24;25.60;1.00
15364;DHT22;7781;49.690;6.472;2023-07-29T12:16:01;25.70;1.00
15364;DHT22;7781;49.690;6.472;2023-07-29T12:18:30;25.60;1.00
15364;DHT22;7781;49.690;6.472;2023-07-29T12:20:59;25.40;1.00
15364;DHT22;7781;49.690;6.472;2023-07-29T12:23:29;25.70;1.00
15364;DHT22;7781;49.690;6.472;2023-07-29T12:25:59;26.00;1.00
15364;DHT22;7781;49.690;6.472;2023-07-29T12:28:30;26.20;1.00
15364;DHT22;7781;49.690;6.472;2023-07-29T12:30:59;25.90;1.00
15364;DHT22;7781;49.690;6.472;2023-07-29T12:33:31;26.10;1.00
15364;DHT22;7781;49.690;6.472;2023-07-29T12:36:00;26.40;1.00
15364;DHT22;7781;49.690;6.472;2023-07-29T12:38:32;26.10;1.00
15364;DHT22;7781;49.690;6.472;2023-07-29T12:41:00;26.10;1.00
15364;DHT22;7781;49.690;6.472;2023-07-29T12:43:29;26.30;1.00
15364;DHT22;7781;49.690;6.472;2023-07-29T12:45:58;26.50;1.00
15364;DHT22;7781;49.690;6.472;2023-07-29T12:48:26;26.50;1.00
15364;DHT22;7781;49.690;6.472;2023-07-29T12:50:55;26.50;1.00
15364;DHT22;7781;49.690;6.472;2023-07-29T12:53:23;26.40;1.00
15364;DHT22;7781;49.690;6.472;2023-07-29T12:55:53;26.40;1.00
15364;DHT22;7781;49.690;6.472;2023-07-29T12:58:22;26.70;1.00
15364;DHT22;7781;49.690;6.472;2023-07-29T13:00:50;27.00;1.00
15364;DHT22;7781;49.690;6.472;2023-07-29T13:03:20;27.50;3.60
15364;DHT22;7781;49.690;6.472;2023-07-29T13:05:49;27.70;1.00
15364;DHT22;7781;49.690;6.472;2023-07-29T13:08:17;27.90;1.00
15364;DHT22;7781;49.690;6.472;2023-07-29T13:10:46;27.40;4.60
15364;DHT22;7781;49.690;6.472;2023-07-29T13:13:16;27.00;1.00
15364;DHT22;7781;49.690;6.472;2023-07-29T13:15:44;26.70;1.00
15364;DHT22;7781;49.690;6.472;2023-07-29T13:18:13;27.00;1.00
15364;DHT22;7781;49.690;6.472;2023-07-29T13:20:41;27.30;1.00
15364;DHT22;7781;49.690;6.472;2023-07-29T13:23:09;28.00;1.00
15364;DHT22;7781;49.690;6.472;2023-07-29T13:25:38;28.70;17.90
15364;DHT22;7781;49.690;6.472;2023-07-29T13:28:06;28.70;6.20
15364;DHT22;7781;49.690;6.472;2023-07-29T13:30:36;28.80;1.00
15364;DHT22;7781;49.690;6.472;2023-07-29T13:33:07;28.70;1.00
15364;DHT22;7781;49.690;6.472;2023-07-29T13:35:35;29.00;1.00
15364;DHT22;7781;49.690;6.472;2023-07-29T13:38:04;29.00;1.00
15364;DHT22;7781;49.690;6.472;2023-07-29T13:40:32;29.00;99.90
15364;DHT22;7781;49.690;6.472;2023-07-29T13:43:04;28.90;99.90
15364;DHT22;7781;49.690;6.472;2023-07-29T13:45:34;28.20;2.60
15364;DHT22;7781;49.690;6.472;2023-07-29T13:48:04;27.60;1.00
15364;DHT22;7781;49.690;6.472;2023-07-29T13:50:33;27.10;1.00
15364;DHT22;7781;49.690;6.472;2023-07-29T13:53:01;27.00;1.00
15364;DHT22;7781;49.690;6.472;2023-07-29T13:55:30;26.60;99.90
15364;DHT22;7781;49.690;6.472;2023-07-29T13:57:58;26.90;1.00
15364;DHT22;7781;49.690;6.472;2023-07-29T14:00:28;27.40;1.00
15364;DHT22;7781;49.690;6.472;2023-07-29T14:02:56;28.10;99.90
15364;DHT22;7781;49.690;6.472;2023-07-29T14:05:26;28.40;1.00
15364;DHT22;7781;49.690;6.472;2023-07-29T14:07:55;28.50;99.90
15364;DHT22;7781;49.690;6.472;2023-07-29T14:10:24;28.80;99.90
15364;DHT22;7781;49.690;6.472;2023-07-29T14:12:52;28.90;99.90
15364;DHT22;7781;49.690;6.472;2023-07-29T14:15:21;29.10;99.90
15364;DHT22;7781;49.690;6.472;2023-07-29T14:17:50;29.20;99.90
15364;DHT22;7781;49.690;6.472;2023-07-29T14:20:18;29.20;99.90
15364;DHT22;7781;49.690;6.472;2023-07-29T14:22:50;29.30;99.90
15364;DHT22;7781;49.690;6.472;2023-07-29T14:25:18;29.60;99.90
15364;DHT22;7781;49.690;6.472;2023-07-29T14:27:46;29.70;99.90
15364;DHT22;7781;49.690;6.472;2023-07-29T14:30:15;29.90;99.90
15364;DHT22;7781;49.690;6.472;2023-07-29T14:32:43;29.60;99.90
15364;DHT22;7781;49.690;6.472;2023-07-29T14:35:12;29.70;99.90
15364;DHT22;7781;49.690;6.472;2023-07-29T14:37:42;29.50;99.90
15364;DHT22;7781;49.690;6.472;2023-07-29T14:40:12;29.10;99.90
15364;DHT22;7781;49.690;6.472;2023-07-29T14:42:40;28.70;99.90
15364;DHT22;7781;49.690;6.472;2023-07-29T14:45:09;28.10;99.90
15364;DHT22;7781;49.690;6.472;2023-07-29T14:47:37;28.20;99.90
15364;DHT22;7781;49.690;6.472;2023-07-29T14:50:06;28.50;99.90
15364;DHT22;7781;49.690;6.472;2023-07-29T14:52:35;28.60;99.90
15364;DHT22;7781;49.690;6.472;2023-07-29T14:55:04;29.00;99.90
15364;DHT22;7781;49.690;6.472;2023-07-29T14:57:34;28.40;99.90
15364;DHT22;7781;49.690;6.472;2023-07-29T15:00:04;27.90;99.90
15364;DHT22;7781;49.690;6.472;2023-07-29T15:02:33;27.40;99.90
15364;DHT22;7781;49.690;6.472;2023-07-29T15:05:02;27.20;99.90
15364;DHT22;7781;49.690;6.472;2023-07-29T15:07:31;27.10;99.90
15364;DHT22;7781;49.690;6.472;2023-07-29T15:09:59;26.80;99.90
15364;DHT22;7781;49.690;6.472;2023-07-29T15:12:28;26.90;99.90
15364;DHT22;7781;49.690;6.472;2023-07-29T15:14:58;26.50;99.90
15364;DHT22;7781;49.690;6.472;2023-07-29T15:17:27;25.70;99.90
15364;DHT22;7781;49.690;6.472;2023-07-29T15:19:55;25.80;99.90
15364;DHT22;7781;49.690;6.472;2023-07-29T15:22:26;26.40;99.90
15364;DHT22;7781;49.690;6.472;2023-07-29T15:24:54;27.10;99.90
15364;DHT22;7781;49.690;6.472;2023-07-29T15:27:23;27.60;99.90
15364;DHT22;7781;49.690;6.472;2023-07-29T15:29:52;27.80;99.90
15364;DHT22;7781;49.690;6.472;2023-07-29T15:32:22;28.30;99.90
15364;DHT22;7781;49.690;6.472;2023-07-29T15:34:51;28.40;99.90
15364;DHT22;7781;49.690;6.472;2023-07-29T15:37:19;28.40;99.90
15364;DHT22;7781;49.690;6.472;2023-07-29T15:39:47;28.60;99.90
15364;DHT22;7781;49.690;6.472;2023-07-29T15:42:16;28.50;99.90
15364;DHT22;7781;49.690;6.472;2023-07-29T15:44:46;28.50;99.90
15364;DHT22;7781;49.690;6.472;2023-07-29T15:47:14;28.30;99.90
15364;DHT22;7781;49.690;6.472;2023-07-29T15:49:47;28.20;99.90
15364;DHT22;7781;49.690;6.472;2023-07-29T15:52:15;27.90;99.90
15364;DHT22;7781;49.690;6.472;2023-07-29T15:54:44;27.60;99.90
15364;DHT22;7781;49.690;6.472;2023-07-29T15:57:13;27.30;99.90
15364;DHT22;7781;49.690;6.472;2023-07-29T15:59:41;27.10;99.90
15364;DHT22;7781;49.690;6.472;2023-07-29T16:02:10;27.20;99.90
15364;DHT22;7781;49.690;6.472;2023-07-29T16:04:38;27.00;99.90